Time;durP1;ratioP1;P1;durP2;ratioP2;P2;SDS_P1;SDS_P2;PMS_P1;PMS_P2;Temp;Humidity;BMP_temperature;BMP_pressure;BME280_temperature;BME280_humidity;BME280_pressure;Samples;Min_cycle;Max_cycle;Signal;HPM_P1;HPM_P2
2022/08/09 00:00:42;;;;;;;2.57;1.80;;;;;;;;;;5136759;27;20220;-58
2022/08/09 00:03:08;;;;;;;3.70;2.13;;;;;;;;;;5135397;27;20903;-57
2022/08/09 00:05:34;;;;;;;4.60;2.17;;;;;;;;;;5135488;27;20466;-57
2022/08/09 00:08:00;;;;;;;2.70;1.93;;;;;;;;;;5136613;27;20264;-57
2022/08/09 00:10:26;;;;;;;3.38;2.10;;;;;;;;;;5135621;27;20426;-58
2022/08/09 00:12:52;;;;;;;5.63;1.90;;;;;;;;;;5136451;27;20553;-57
2022/08/09 00:15:18;;;;;;;5.30;2.30;;;;;;;;;;5136269;27;20228;-57
2022/08/09 00:17:45;;;;;;;2.10;1.90;;;;;;;;;;5136579;27;20193;-57
2022/08/09 00:20:11;;;;;;;4.00;2.30;;;;;;;;;;5136305;27;20202;-57
2022/08/09 00:22:37;;;;;;;2.37;2.10;;;;;;;;;;5136388;27;20190;-58
2022/08/09 00:25:04;;;;;;;3.38;2.08;;;;;;;;;;5135033;27;20390;-57
2022/08/09 00:27:30;;;;;;;3.28;2.15;;;;;;;;;;5135250;27;20402;-57
2022/08/09 00:29:56;;;;;;;5.25;2.58;;;;;;;;;;5134842;27;20451;-58
2022/08/09 00:32:22;;;;;;;4.70;2.45;;;;;;;;;;5134851;27;20406;-58
2022/08/09 00:34:49;;;;;;;3.37;2.43;;;;;;;;;;5136135;27;20222;-57
2022/08/09 00:37:15;;;;;;;2.93;2.37;;;;;;;;;;5136098;27;20206;-57
2022/08/09 00:39:41;;;;;;;3.97;2.10;;;;;;;;;;5136049;27;20206;-58
2022/08/09 00:42:07;;;;;;;2.93;2.00;;;;;;;;;;5136062;27;20635;-58
2022/08/09 00:44:33;;;;;;;3.88;2.47;;;;;;;;;;5134703;27;20452;-57
2022/08/09 00:46:59;;;;;;;3.27;2.20;;;;;;;;;;5135960;27;20272;-57
2022/08/09 00:49:25;;;;;;;3.23;2.20;;;;;;;;;;5135932;27;20206;-57
2022/08/09 00:51:55;;;;;;;4.10;2.40;;;;;;;;;;5135831;27;20225;-58
2022/08/09 00:54:21;;;;;;;3.90;2.17;;;;;;;;;;5135773;27;20213;-58
2022/08/09 00:56:47;;;;;;;3.10;2.20;;;;;;;;;;5135893;27;20288;-57
2022/08/09 00:59:13;;;;;;;3.70;2.30;;;;;;;;;;5135594;27;20221;-57
2022/08/09 01:01:40;;;;;;;3.15;2.30;;;;;;;;;;5134333;27;20445;-58
2022/08/09 01:04:08;;;;;;;2.73;2.37;;;;;;;;;;5135485;27;20195;-57
2022/08/09 01:06:38;;;;;;;4.73;2.40;;;;;;;;;;5135470;27;20205;-57
2022/08/09 01:09:11;;;;;;;4.17;2.50;;;;;;;;;;5135424;27;20194;-57
2022/08/09 01:11:41;;;;;;;5.28;2.70;;;;;;;;;;5134193;27;20466;-58
2022/08/09 01:14:09;;;;;;;3.30;2.40;;;;;;;;;;5133978;27;20466;-57
2022/08/09 01:16:38;;;;;;;2.40;2.20;;;;;;;;;;5135354;27;20251;-57
2022/08/09 01:19:08;;;;;;;4.03;2.65;;;;;;;;;;5133958;27;20466;-57
2022/08/09 01:21:41;;;;;;;3.47;2.50;;;;;;;;;;5135221;27;20198;-58
2022/08/09 01:24:13;;;;;;;4.63;2.37;;;;;;;;;;5135173;27;20217;-57
2022/08/09 01:26:57;;;;;;;2.87;2.20;;;;;;;;;;5135212;27;20213;-57
2022/08/09 01:29:26;;;;;;;3.40;2.50;;;;;;;;;;5135074;27;20204;-57
2022/08/09 01:31:54;;;;;;;3.57;2.30;;;;;;;;;;5135069;27;20247;-57
2022/08/09 01:34:21;;;;;;;4.13;2.50;;;;;;;;;;5134826;27;20210;-57
2022/08/09 01:36:48;;;;;;;6.63;2.80;;;;;;;;;;5135073;27;20194;-57
2022/08/09 01:39:15;;;;;;;4.63;2.43;;;;;;;;;;5134988;27;20259;-58
2022/08/09 01:41:42;;;;;;;3.83;2.37;;;;;;;;;;5134854;27;20198;-57
2022/08/09 01:44:10;;;;;;;3.40;2.50;;;;;;;;;;5134583;27;20225;-57
2022/08/09 01:46:37;;;;;;;3.07;2.53;;;;;;;;;;5134755;27;20225;-57
2022/08/09 01:49:05;;;;;;;4.37;2.30;;;;;;;;;;5134610;27;20224;-57
2022/08/09 01:51:31;;;;;;;4.20;2.70;;;;;;;;;;5134986;27;20190;-57
2022/08/09 01:53:58;;;;;;;3.00;2.63;;;;;;;;;;5134559;27;20210;-57
2022/08/09 01:56:26;;;;;;;5.00;2.50;;;;;;;;;;5134479;27;20225;-57
2022/08/09 01:58:53;;;;;;;3.10;2.83;;;;;;;;;;5134630;27;20193;-57
2022/08/09 02:01:22;;;;;;;8.00;2.70;;;;;;;;;;5134351;27;20205;-57
2022/08/09 02:03:48;;;;;;;3.10;2.53;;;;;;;;;;5134787;27;20205;-57
2022/08/09 02:06:15;;;;;;;3.03;2.57;;;;;;;;;;5134398;27;20193;-57
2022/08/09 02:08:43;;;;;;;4.87;2.47;;;;;;;;;;5134111;27;20239;-57
2022/08/09 02:11:10;;;;;;;2.93;2.33;;;;;;;;;;5134131;27;20198;-57
2022/08/09 02:13:37;;;;;;;3.93;2.40;;;;;;;;;;5133628;27;20247;-57
2022/08/09 02:16:03;;;;;;;3.83;2.60;;;;;;;;;;5134094;27;20236;-56
2022/08/09 02:18:31;;;;;;;3.33;2.73;;;;;;;;;;5134244;27;20194;-57
2022/08/09 02:20:58;;;;;;;2.90;2.60;;;;;;;;;;5133980;27;20202;-57
2022/08/09 02:23:27;;;;;;;4.40;2.90;;;;;;;;;;5133898;27;20223;-57
2022/08/09 02:25:55;;;;;;;2.97;2.60;;;;;;;;;;5133964;27;20277;-57
2022/08/09 02:28:22;;;;;;;4.17;3.03;;;;;;;;;;5133714;27;20569;-57
2022/08/09 02:30:50;;;;;;;5.07;2.50;;;;;;;;;;5133897;27;20267;-57
2022/08/09 02:33:19;;;;;;;4.83;2.73;;;;;;;;;;5133840;27;20630;-57
2022/08/09 02:35:47;;;;;;;3.43;2.70;;;;;;;;;;5133820;27;20320;-57
2022/08/09 02:38:15;;;;;;;3.80;2.60;;;;;;;;;;5133932;27;20205;-57
2022/08/09 02:40:42;;;;;;;4.20;2.83;;;;;;;;;;5133662;27;20196;-57
2022/08/09 02:43:08;;;;;;;3.03;2.70;;;;;;;;;;5133397;27;20646;-57
2022/08/09 02:45:37;;;;;;;3.23;2.87;;;;;;;;;;5133528;27;20217;-57
2022/08/09 02:48:06;;;;;;;4.27;2.97;;;;;;;;;;5133535;27;20197;-57
2022/08/09 02:50:34;;;;;;;5.77;2.67;;;;;;;;;;5133474;27;20598;-57
2022/08/09 02:53:03;;;;;;;3.73;2.83;;;;;;;;;;5133472;27;20236;-57
2022/08/09 02:55:30;;;;;;;4.53;3.10;;;;;;;;;;5133564;27;20225;-57
2022/08/09 02:57:58;;;;;;;2.97;2.67;;;;;;;;;;5133354;27;20193;-57
2022/08/09 03:00:24;;;;;;;5.77;3.17;;;;;;;;;;5133556;27;20812;-57
2022/08/09 03:02:52;;;;;;;3.80;2.87;;;;;;;;;;5133242;27;20292;-57
2022/08/09 03:05:19;;;;;;;4.87;3.23;;;;;;;;;;5133119;27;20185;-57
2022/08/09 03:07:45;;;;;;;5.83;3.40;;;;;;;;;;5133179;27;20319;-56
2022/08/09 03:10:14;;;;;;;4.70;3.43;;;;;;;;;;5133030;27;20194;-57
2022/08/09 03:12:41;;;;;;;7.03;3.17;;;;;;;;;;5133112;27;20193;-57
2022/08/09 03:15:08;;;;;;;3.95;3.35;;;;;;;;;;5131566;27;20742;-57
2022/08/09 03:17:35;;;;;;;4.07;3.00;;;;;;;;;;5133140;27;20583;-57
2022/08/09 03:20:01;;;;;;;6.20;3.20;;;;;;;;;;5133033;27;20716;-56
2022/08/09 03:22:29;;;;;;;5.20;3.27;;;;;;;;;;5133022;27;20194;-57
2022/08/09 03:24:55;;;;;;;3.80;3.00;;;;;;;;;;5132083;27;20177;-56
2022/08/09 03:27:22;;;;;;;4.23;3.20;;;;;;;;;;5132731;27;20204;-57
2022/08/09 03:29:50;;;;;;;4.87;3.30;;;;;;;;;;5132744;27;20201;-57
2022/08/09 03:32:16;;;;;;;4.23;3.40;;;;;;;;;;5132867;27;20637;-57
2022/08/09 03:34:42;;;;;;;5.68;3.97;;;;;;;;;;5131472;27;20893;-57
2022/08/09 03:37:08;;;;;;;4.93;4.03;;;;;;;;;;5131416;27;20413;-56
2022/08/09 03:39:35;;;;;;;4.97;3.63;;;;;;;;;;5132797;27;20198;-57
2022/08/09 03:42:01;;;;;;;4.07;3.37;;;;;;;;;;5132717;27;20199;-57
2022/08/09 03:44:28;;;;;;;4.37;3.50;;;;;;;;;;5132391;27;20225;-57
2022/08/09 03:46:54;;;;;;;6.75;4.07;;;;;;;;;;5131427;28;20433;-57
2022/08/09 03:49:21;;;;;;;5.13;4.00;;;;;;;;;;5132391;27;20201;-57
2022/08/09 03:51:49;;;;;;;5.73;4.20;;;;;;;;;;5132571;27;20238;-56
2022/08/09 03:54:16;;;;;;;6.50;3.87;;;;;;;;;;5132433;28;20579;-56
2022/08/09 03:56:43;;;;;;;5.17;4.00;;;;;;;;;;5132571;27;20193;-57
2022/08/09 03:59:10;;;;;;;5.00;4.40;;;;;;;;;;5132435;28;20202;-56
2022/08/09 04:01:38;;;;;;;5.27;4.20;;;;;;;;;;5132497;27;20197;-56
2022/08/09 04:04:05;;;;;;;5.40;4.85;;;;;;;;;;5131161;27;20769;-56
2022/08/09 04:06:31;;;;;;;6.57;4.60;;;;;;;;;;5132354;28;20667;-56
2022/08/09 04:08:57;;;;;;;5.30;4.13;;;;;;;;;;5132581;28;20568;-56
2022/08/09 04:11:23;;;;;;;5.20;4.70;;;;;;;;;;5131202;27;20477;-56
2022/08/09 04:13:49;;;;;;;6.07;4.90;;;;;;;;;;5131131;28;20398;-56
2022/08/09 04:16:15;;;;;;;5.78;4.63;;;;;;;;;;5131153;28;20468;-56
2022/08/09 04:18:42;;;;;;;5.40;4.75;;;;;;;;;;5131154;28;20469;-56
2022/08/09 04:21:09;;;;;;;4.60;4.20;;;;;;;;;;5132244;27;20201;-56
2022/08/09 04:23:35;;;;;;;6.22;5.28;;;;;;;;;;5131035;27;20435;-57
2022/08/09 04:26:05;;;;;;;5.17;4.63;;;;;;;;;;5131185;28;20394;-57
2022/08/09 04:28:30;;;;;;;6.63;4.30;;;;;;;;;;5132350;27;20504;-57
2022/08/09 04:30:56;;;;;;;4.97;4.13;;;;;;;;;;5132199;28;20197;-57
2022/08/09 04:33:22;;;;;;;5.20;4.30;;;;;;;;;;5132192;28;20201;-57
2022/08/09 04:35:50;;;;;;;4.87;4.23;;;;;;;;;;5133310;27;20222;-57
2022/08/09 04:38:16;;;;;;;5.37;3.77;;;;;;;;;;5136114;27;20664;-57
2022/08/09 04:40:48;;;;;;;5.20;4.70;;;;;;;;;;5134811;27;20383;-57
2022/08/09 04:43:14;;;;;;;5.77;4.63;;;;;;;;;;5134739;27;20502;-57
2022/08/09 04:45:40;;;;;;;5.18;4.68;;;;;;;;;;5134666;27;20406;-57
2022/08/09 04:48:06;;;;;;;5.30;4.53;;;;;;;;;;5135776;27;20246;-57
2022/08/09 04:50:32;;;;;;;5.40;4.45;;;;;;;;;;5134689;27;20839;-56
2022/08/09 04:52:59;;;;;;;5.77;4.03;;;;;;;;;;5135868;27;20205;-57
2022/08/09 04:55:25;;;;;;;5.13;4.47;;;;;;;;;;5134283;27;20433;-56
2022/08/09 04:57:51;;;;;;;4.90;4.30;;;;;;;;;;5135651;27;20659;-57
2022/08/09 05:00:17;;;;;;;4.57;3.90;;;;;;;;;;5135636;27;20635;-56
2022/08/09 05:02:44;;;;;;;5.40;4.20;;;;;;;;;;5135705;27;20198;-57
2022/08/09 05:05:10;;;;;;;4.63;4.23;;;;;;;;;;5135515;27;20198;-57
2022/08/09 05:07:36;;;;;;;5.17;4.10;;;;;;;;;;5135406;27;20237;-56
2022/08/09 05:10:04;;;;;;;5.30;4.57;;;;;;;;;;5134206;27;20448;-56
2022/08/09 05:12:30;;;;;;;4.70;4.30;;;;;;;;;;5134215;27;20409;-57
2022/08/09 05:14:56;;;;;;;5.43;4.20;;;;;;;;;;5135038;27;20627;-56
2022/08/09 05:17:22;;;;;;;5.13;4.30;;;;;;;;;;5135270;27;20567;-57
2022/08/09 05:19:48;;;;;;;5.13;4.35;;;;;;;;;;5134248;27;20473;-57
2022/08/09 05:22:15;;;;;;;4.30;3.90;;;;;;;;;;5135229;27;20193;-57
2022/08/09 05:24:41;;;;;;;4.40;3.97;;;;;;;;;;5135147;27;20561;-56
2022/08/09 05:27:08;;;;;;;5.03;4.03;;;;;;;;;;5135046;27;20200;-57
2022/08/09 05:29:34;;;;;;;7.47;4.57;;;;;;;;;;5133983;27;20441;-57
2022/08/09 05:32:00;;;;;;;4.77;3.80;;;;;;;;;;5135061;27;20622;-57
2022/08/09 05:34:26;;;;;;;8.20;3.90;;;;;;;;;;5134954;27;20197;-57
2022/08/09 05:36:54;;;;;;;4.70;3.63;;;;;;;;;;5134940;27;20198;-57
2022/08/09 05:39:20;;;;;;;4.50;3.90;;;;;;;;;;5134746;27;20284;-57
2022/08/09 05:41:46;;;;;;;4.47;3.63;;;;;;;;;;5135033;27;20212;-57
2022/08/09 05:44:15;;;;;;;6.13;3.70;;;;;;;;;;5134591;27;20576;-57
2022/08/09 05:46:41;;;;;;;5.43;3.60;;;;;;;;;;5134304;27;20539;-55
2022/08/09 05:49:07;;;;;;;4.57;3.37;;;;;;;;;;5133814;27;20401;-57
2022/08/09 05:51:33;;;;;;;3.90;3.60;;;;;;;;;;5134799;27;20724;-57
2022/08/09 05:53:59;;;;;;;6.10;3.73;;;;;;;;;;5134842;27;20286;-58
2022/08/09 05:56:26;;;;;;;5.53;3.47;;;;;;;;;;5134414;27;20699;-55
2022/08/09 05:58:56;;;;;;;8.47;3.40;;;;;;;;;;5134439;27;20402;-57
2022/08/09 06:01:24;;;;;;;3.53;3.23;;;;;;;;;;5134592;27;20272;-55
2022/08/09 06:03:50;;;;;;;5.90;3.27;;;;;;;;;;5134265;27;20676;-55
2022/08/09 06:06:16;;;;;;;3.40;3.10;;;;;;;;;;5134280;27;20187;-55
2022/08/09 06:08:42;;;;;;;7.17;3.17;;;;;;;;;;5133892;27;20288;-56
2022/08/09 06:11:08;;;;;;;4.50;3.67;;;;;;;;;;5134114;27;20206;-55
2022/08/09 06:13:34;;;;;;;3.80;3.00;;;;;;;;;;5134147;27;20211;-55
2022/08/09 06:16:01;;;;;;;4.30;3.60;;;;;;;;;;5134060;27;20221;-56
2022/08/09 06:18:28;;;;;;;4.70;3.00;;;;;;;;;;5134201;27;20606;-57
2022/08/09 06:20:55;;;;;;;3.87;3.40;;;;;;;;;;5134177;27;20275;-56
2022/08/09 06:23:21;;;;;;;4.13;3.40;;;;;;;;;;5133869;27;20277;-56
2022/08/09 06:25:47;;;;;;;4.50;3.10;;;;;;;;;;5134077;27;20299;-56
2022/08/09 06:28:13;;;;;;;3.73;3.40;;;;;;;;;;5133819;27;20283;-56
2022/08/09 06:30:41;;;;;;;5.10;3.83;;;;;;;;;;5133796;27;20251;-57
2022/08/09 06:33:07;;;;;;;5.30;3.47;;;;;;;;;;5133786;27;20307;-56
2022/08/09 06:35:35;;;;;;;7.40;3.70;;;;;;;;;;5133752;27;20251;-57
2022/08/09 06:38:01;;;;;;;4.93;3.20;;;;;;;;;;5133768;27;20283;-57
2022/08/09 06:40:27;;;;;;;4.30;3.27;;;;;;;;;;5133836;27;20208;-57
2022/08/09 06:42:53;;;;;;;3.07;2.50;;;;;;;;;;5133700;27;20221;-58
2022/08/09 06:45:19;;;;;;;4.13;2.93;;;;;;;;;;5133343;27;20220;-57
2022/08/09 06:47:47;;;;;;;3.03;2.70;;;;;;;;;;5133674;27;20194;-59
2022/08/09 06:50:13;;;;;;;5.33;3.63;;;;;;;;;;5133544;27;20243;-57
2022/08/09 06:52:47;;;;;;;2.90;2.50;;;;;;;;;;5133452;27;20193;-58
2022/08/09 06:55:14;;;;;;;5.20;3.07;;;;;;;;;;5133274;27;20243;-57
2022/08/09 06:57:40;;;;;;;3.30;2.67;;;;;;;;;;5133303;27;20222;-57
2022/08/09 07:00:07;;;;;;;4.10;2.87;;;;;;;;;;5133036;27;20236;-57
2022/08/09 07:02:33;;;;;;;5.87;2.90;;;;;;;;;;5133275;27;20200;-58
2022/08/09 07:04:59;;;;;;;6.77;2.73;;;;;;;;;;5133584;27;20185;-58
2022/08/09 07:07:25;;;;;;;8.97;2.50;;;;;;;;;;5132999;27;20707;-58
2022/08/09 07:09:52;;;;;;;5.07;2.60;;;;;;;;;;5132980;27;20288;-58
2022/08/09 07:12:18;;;;;;;4.83;2.57;;;;;;;;;;5132926;27;20201;-58
2022/08/09 07:14:44;;;;;;;3.90;2.37;;;;;;;;;;5133153;27;20242;-59
2022/08/09 07:17:10;;;;;;;2.70;2.47;;;;;;;;;;5132830;27;20296;-58
2022/08/09 07:19:36;;;;;;;3.67;2.60;;;;;;;;;;5132822;27;20189;-57
2022/08/09 07:22:02;;;;;;;3.20;2.23;;;;;;;;;;5132941;27;20198;-57
2022/08/09 07:24:29;;;;;;;2.93;2.23;;;;;;;;;;5132993;27;20195;-57
2022/08/09 07:26:57;;;;;;;5.77;2.10;;;;;;;;;;5132870;27;20198;-57
2022/08/09 07:29:23;;;;;;;7.27;2.00;;;;;;;;;;5132618;27;20578;-58
2022/08/09 07:31:49;;;;;;;3.30;2.00;;;;;;;;;;5133041;27;20268;-57
2022/08/09 07:34:15;;;;;;;5.40;2.00;;;;;;;;;;5132748;27;20627;-58
2022/08/09 07:36:41;;;;;;;3.83;2.17;;;;;;;;;;5132625;27;20298;-58
2022/08/09 07:39:07;;;;;;;3.50;2.27;;;;;;;;;;5132510;27;20660;-58
2022/08/09 07:41:33;;;;;;;4.27;2.17;;;;;;;;;;5132728;27;20193;-58
2022/08/09 07:44:01;;;;;;;4.47;1.60;;;;;;;;;;5132586;27;20206;-58
2022/08/09 07:46:27;;;;;;;3.83;1.87;;;;;;;;;;5132554;27;20233;-58
2022/08/09 07:48:53;;;;;;;5.30;1.73;;;;;;;;;;5132523;28;20606;-58
2022/08/09 07:51:19;;;;;;;7.78;2.00;;;;;;;;;;5131211;27;20395;-58
2022/08/09 07:53:45;;;;;;;7.40;2.10;;;;;;;;;;5132668;27;20536;-58
2022/08/09 07:56:14;;;;;;;7.87;1.93;;;;;;;;;;5132395;27;20225;-58
2022/08/09 07:58:40;;;;;;;2.93;1.33;;;;;;;;;;5132507;28;20246;-58
2022/08/09 08:01:07;;;;;;;3.30;1.40;;;;;;;;;;5132471;28;20195;-58
2022/08/09 08:03:33;;;;;;;3.27;1.40;;;;;;;;;;5132602;28;20208;-58
2022/08/09 08:05:59;;;;;;;1.97;1.10;;;;;;;;;;5132319;27;20600;-58
2022/08/09 08:08:25;;;;;;;4.77;1.50;;;;;;;;;;5132094;27;20288;-58
2022/08/09 08:10:52;;;;;;;3.27;1.50;;;;;;;;;;5133363;27;20230;-58
2022/08/09 08:13:18;;;;;;;3.70;1.63;;;;;;;;;;5136191;27;20641;-58
2022/08/09 08:15:44;;;;;;;4.83;1.70;;;;;;;;;;5136503;27;20264;-58
2022/08/09 08:18:11;;;;;;;5.23;1.60;;;;;;;;;;5136064;27;20228;-58
2022/08/09 08:20:37;;;;;;;4.43;1.40;;;;;;;;;;5136237;27;20253;-58
2022/08/09 08:23:04;;;;;;;5.43;1.40;;;;;;;;;;5136280;27;20197;-58
2022/08/09 08:25:30;;;;;;;6.73;1.50;;;;;;;;;;5136379;27;20275;-58
2022/08/09 08:27:57;;;;;;;2.70;1.07;;;;;;;;;;5136143;27;20668;-58
2022/08/09 08:30:23;;;;;;;5.70;1.40;;;;;;;;;;5136129;27;20201;-58
2022/08/09 08:32:50;;;;;;;1.90;1.20;;;;;;;;;;5136109;27;20227;-58
2022/08/09 08:35:18;;;;;;;1.70;1.30;;;;;;;;;;5136087;27;20229;-58
2022/08/09 08:37:44;;;;;;;2.40;1.27;;;;;;;;;;5136313;27;20568;-58
2022/08/09 08:40:10;;;;;;;3.23;1.43;;;;;;;;;;5135988;27;20202;-58
2022/08/09 08:42:36;;;;;;;3.07;1.30;;;;;;;;;;5135980;27;20201;-58
2022/08/09 08:45:04;;;;;;;3.00;1.60;;;;;;;;;;5135831;27;20292;-58
2022/08/09 08:47:30;;;;;;;3.40;1.50;;;;;;;;;;5135899;27;20626;-58
2022/08/09 08:49:57;;;;;;;3.40;1.37;;;;;;;;;;5135865;27;20191;-58
2022/08/09 08:52:25;;;;;;;4.10;1.17;;;;;;;;;;5135787;27;20203;-58
2022/08/09 08:54:52;;;;;;;2.70;1.33;;;;;;;;;;5135677;27;20199;-58
2022/08/09 08:57:19;;;;;;;3.03;1.30;;;;;;;;;;5135590;27;20297;-58
2022/08/09 08:59:45;;;;;;;1.33;0.93;;;;;;;;;;5135937;27;20196;-58
2022/08/09 09:02:17;;;;;;;4.97;1.67;;;;;;;;;;5135518;27;20657;-58
2022/08/09 09:04:43;;;;;;;2.00;1.10;;;;;;;;;;5135784;27;20199;-58
2022/08/09 09:07:10;;;;;;;4.70;1.60;;;;;;;;;;5135253;27;20708;-58
2022/08/09 09:09:39;;;;;;;2.60;1.20;;;;;;;;;;5135619;27;20244;-58
2022/08/09 09:12:07;;;;;;;2.03;1.47;;;;;;;;;;5135294;27;20255;-58
2022/08/09 09:14:33;;;;;;;4.73;1.53;;;;;;;;;;5135558;27;20223;-58
2022/08/09 09:17:00;;;;;;;2.07;1.50;;;;;;;;;;5135348;27;20227;-57
2022/08/09 09:19:26;;;;;;;3.73;1.30;;;;;;;;;;5135223;27;20597;-58
2022/08/09 09:21:56;;;;;;;3.47;1.60;;;;;;;;;;5134462;27;20245;-57
2022/08/09 09:24:26;;;;;;;1.70;1.40;;;;;;;;;;5134709;27;20197;-58
2022/08/09 09:26:54;;;;;;;2.40;1.30;;;;;;;;;;5135258;27;20204;-58
2022/08/09 09:29:27;;;;;;;3.90;1.63;;;;;;;;;;5134976;27;20233;-58
2022/08/09 09:31:53;;;;;;;1.40;1.23;;;;;;;;;;5135118;27;20181;-58
2022/08/09 09:34:18;;;;;;;3.70;1.60;;;;;;;;;;5134969;27;20254;-58
2022/08/09 09:36:45;;;;;;;3.50;1.60;;;;;;;;;;5135173;27;20260;-58
2022/08/09 09:39:11;;;;;;;2.53;1.30;;;;;;;;;;5134794;27;20206;-57
2022/08/09 09:41:37;;;;;;;1.63;1.30;;;;;;;;;;5135062;27;20341;-58
2022/08/09 09:44:05;;;;;;;2.10;1.27;;;;;;;;;;5134763;27;20195;-60
2022/08/09 09:46:32;;;;;;;4.97;1.40;;;;;;;;;;5134891;27;20213;-58
2022/08/09 09:48:58;;;;;;;3.37;1.23;;;;;;;;;;5134814;27;20276;-58
2022/08/09 09:51:29;;;;;;;3.40;1.50;;;;;;;;;;5134829;27;20560;-58
2022/08/09 09:54:02;;;;;;;4.60;1.80;;;;;;;;;;5134693;27;20195;-58
2022/08/09 09:56:30;;;;;;;3.07;1.67;;;;;;;;;;5134515;27;20270;-59
2022/08/09 09:58:56;;;;;;;4.57;1.10;;;;;;;;;;5134413;27;20195;-59
2022/08/09 10:01:24;;;;;;;2.40;1.33;;;;;;;;;;5134373;27;20441;-59
2022/08/09 10:03:51;;;;;;;2.17;1.37;;;;;;;;;;5134445;27;20314;-59
2022/08/09 10:06:17;;;;;;;2.70;1.40;;;;;;;;;;5134373;27;20202;-59
2022/08/09 10:08:44;;;;;;;2.40;1.60;;;;;;;;;;5134207;27;20786;-59
2022/08/09 10:11:17;;;;;;;3.93;1.10;;;;;;;;;;5134242;27;20256;-58
2022/08/09 10:13:43;;;;;;;5.17;1.30;;;;;;;;;;5134211;27;20677;-58
2022/08/09 10:16:09;;;;;;;3.17;1.57;;;;;;;;;;5134010;27;20840;-59
2022/08/09 10:18:37;;;;;;;4.40;1.50;;;;;;;;;;5134199;27;20295;-59
2022/08/09 10:21:07;;;;;;;1.87;1.20;;;;;;;;;;5134110;27;20204;-58
2022/08/09 10:23:33;;;;;;;2.37;0.90;;;;;;;;;;5134039;27;20617;-59
2022/08/09 10:26:02;;;;;;;2.33;1.20;;;;;;;;;;5134152;27;20191;-59
2022/08/09 10:28:29;;;;;;;1.83;1.27;;;;;;;;;;5133921;27;20192;-59
2022/08/09 10:30:55;;;;;;;1.93;1.27;;;;;;;;;;5134049;27;20193;-59
2022/08/09 10:33:23;;;;;;;3.33;1.37;;;;;;;;;;5133297;27;20203;-59
2022/08/09 10:35:50;;;;;;;2.13;1.30;;;;;;;;;;5133635;27;20249;-58
2022/08/09 10:38:16;;;;;;;4.43;1.43;;;;;;;;;;5133820;27;20199;-58
2022/08/09 10:40:43;;;;;;;3.93;1.20;;;;;;;;;;5133713;27;20236;-59
2022/08/09 10:43:09;;;;;;;1.60;1.20;;;;;;;;;;5133743;27;20279;-59
2022/08/09 10:45:35;;;;;;;1.97;1.20;;;;;;;;;;5133405;27;20685;-59
2022/08/09 10:48:04;;;;;;;2.43;1.30;;;;;;;;;;5133577;27;20190;-58
2022/08/09 10:53:32;;;;;;;3.50;1.30;;;;;;;;;;5133532;27;20258;-59
2022/08/09 10:56:16;;;;;;;1.87;1.23;;;;;;;;;;5133361;27;20228;-59
2022/08/09 10:58:42;;;;;;;2.50;1.20;;;;;;;;;;5132247;27;20395;-59
2022/08/09 11:01:23;;;;;;;2.03;1.30;;;;;;;;;;5132080;27;20794;-59
2022/08/09 11:04:14;;;;;;;2.27;1.40;;;;;;;;;;5131963;27;20764;-58
2022/08/09 11:06:41;;;;;;;2.27;1.17;;;;;;;;;;5133139;27;20432;-59
2022/08/09 11:09:09;;;;;;;1.70;1.20;;;;;;;;;;5133182;27;20642;-59
2022/08/09 11:11:50;;;;;;;2.13;1.03;;;;;;;;;;5133012;27;20234;-59
2022/08/09 11:14:34;;;;;;;2.77;1.10;;;;;;;;;;5132390;27;20201;-59
2022/08/09 11:17:00;;;;;;;2.10;1.07;;;;;;;;;;5133222;27;20443;-59
2022/08/09 11:19:44;;;;;;;2.03;1.30;;;;;;;;;;5132798;27;20358;-58
2022/08/09 11:22:10;;;;;;;3.10;1.10;;;;;;;;;;5132820;27;20196;-59
2022/08/09 11:25:00;;;;;;;2.50;1.40;;;;;;;;;;5132876;27;20194;-59
2022/08/09 11:27:31;;;;;;;2.17;1.20;;;;;;;;;;5105963;27;20491;-58
2022/08/09 11:29:57;;;;;;;1.23;0.80;;;;;;;;;;5132916;27;20740;-59
2022/08/09 11:32:43;;;;;;;1.37;0.93;;;;;;;;;;5132762;27;20199;-59
2022/08/09 11:35:13;;;;;;;1.50;1.07;;;;;;;;;;5132772;27;20500;-58
2022/08/09 11:37:41;;;;;;;6.43;1.13;;;;;;;;;;5133100;27;20321;-59
2022/08/09 11:40:08;;;;;;;1.23;0.90;;;;;;;;;;5132781;27;20204;-58
2022/08/09 11:42:40;;;;;;;2.97;1.17;;;;;;;;;;5132631;27;20283;-58
2022/08/09 11:45:18;;;;;;;1.90;1.13;;;;;;;;;;5131846;27;20251;-60
2022/08/09 11:47:45;;;;;;;2.73;1.30;;;;;;;;;;5132878;27;20211;-58
2022/08/09 11:50:11;;;;;;;1.97;1.00;;;;;;;;;;5132518;27;20232;-59
2022/08/09 11:53:08;;;;;;;2.00;1.10;;;;;;;;;;5132692;27;20442;-58
2022/08/09 11:55:36;;;;;;;1.80;0.90;;;;;;;;;;5132342;27;20225;-59
2022/08/09 11:58:27;;;;;;;2.70;1.07;;;;;;;;;;5132594;27;20212;-59
2022/08/09 12:00:53;;;;;;;2.13;1.27;;;;;;;;;;5132395;27;20569;-59
2022/08/09 12:03:20;;;;;;;3.13;1.20;;;;;;;;;;5132482;27;20203;-59
2022/08/09 12:05:46;;;;;;;2.27;1.10;;;;;;;;;;5132543;27;20570;-58
2022/08/09 12:08:13;;;;;;;1.30;1.17;;;;;;;;;;5132289;28;20231;-59
2022/08/09 12:10:42;;;;;;;2.63;1.40;;;;;;;;;;5132447;27;20274;-58
2022/08/09 12:13:10;;;;;;;2.00;1.07;;;;;;;;;;5132522;27;20191;-59
2022/08/09 12:15:36;;;;;;;3.63;1.40;;;;;;;;;;5131133;27;20471;-59
2022/08/09 12:18:02;;;;;;;1.67;1.10;;;;;;;;;;5132502;28;20228;-59
2022/08/09 12:20:33;;;;;;;1.10;0.90;;;;;;;;;;5132404;27;20197;-59
2022/08/09 12:23:00;;;;;;;1.10;1.00;;;;;;;;;;5132506;28;20679;-59
2022/08/09 12:25:27;;;;;;;1.87;1.10;;;;;;;;;;5132299;27;20198;-58
2022/08/09 12:28:07;;;;;;;5.00;1.20;;;;;;;;;;5132260;27;20196;-59
2022/08/09 12:30:34;;;;;;;1.60;0.73;;;;;;;;;;5132391;27;20220;-59
2022/08/09 12:33:01;;;;;;;2.30;1.07;;;;;;;;;;5132311;27;20211;-59
2022/08/09 12:35:27;;;;;;;1.60;1.10;;;;;;;;;;5132087;28;20301;-58
2022/08/09 12:37:53;;;;;;;1.43;0.93;;;;;;;;;;5132122;28;20200;-60
2022/08/09 12:40:21;;;;;;;2.10;1.07;;;;;;;;;;5132028;27;20199;-58
2022/08/09 12:42:47;;;;;;;2.07;0.97;;;;;;;;;;5132299;27;20198;-58
2022/08/09 12:45:13;;;;;;;2.57;1.03;;;;;;;;;;5132061;28;20258;-58
2022/08/09 12:47:40;;;;;;;1.13;1.00;;;;;;;;;;5132137;28;20233;-58
2022/08/09 12:50:18;;;;;;;1.37;1.10;;;;;;;;;;5132000;28;20197;-58
2022/08/09 12:52:46;;;;;;;2.43;1.30;;;;;;;;;;5132089;27;20605;-58
2022/08/09 12:55:23;;;;;;;1.47;0.90;;;;;;;;;;5131787;27;20208;-58
2022/08/09 12:57:49;;;;;;;2.33;1.30;;;;;;;;;;5134505;27;20193;-58
2022/08/09 13:00:20;;;;;;;1.83;1.20;;;;;;;;;;5135712;27;20211;-58
2022/08/09 13:02:52;;;;;;;1.43;0.90;;;;;;;;;;5135892;27;20252;-58
2022/08/09 13:05:18;;;;;;;1.40;1.30;;;;;;;;;;5135552;27;20201;-58
2022/08/09 13:07:59;;;;;;;1.80;1.00;;;;;;;;;;5135338;27;20236;-58
2022/08/09 13:10:25;;;;;;;0.87;0.83;;;;;;;;;;5134525;27;20256;-58
2022/08/09 13:12:53;;;;;;;2.13;1.10;;;;;;;;;;5135405;27;20214;-58
2022/08/09 13:15:19;;;;;;;1.33;1.10;;;;;;;;;;5135314;27;20204;-58
2022/08/09 13:17:45;;;;;;;1.43;0.83;;;;;;;;;;5135538;27;20302;-59
2022/08/09 13:20:12;;;;;;;1.83;1.20;;;;;;;;;;5135251;27;20205;-58
2022/08/09 13:22:47;;;;;;;1.27;0.90;;;;;;;;;;5135189;27;20215;-60
2022/08/09 13:25:13;;;;;;;2.40;1.17;;;;;;;;;;5135212;27;20202;-59
2022/08/09 13:27:39;;;;;;;3.33;1.20;;;;;;;;;;5135186;27;20204;-59
2022/08/09 13:30:06;;;;;;;1.37;1.07;;;;;;;;;;5135138;27;20215;-58
2022/08/09 13:32:43;;;;;;;1.27;1.10;;;;;;;;;;5135023;27;20193;-61
2022/08/09 13:35:09;;;;;;;4.07;1.73;;;;;;;;;;5134920;27;20199;-58
2022/08/09 13:37:37;;;;;;;1.20;1.10;;;;;;;;;;5134901;27;20299;-58
2022/08/09 13:40:03;;;;;;;1.93;1.20;;;;;;;;;;5135077;27;20209;-58
2022/08/09 13:42:30;;;;;;;1.97;1.07;;;;;;;;;;5134875;27;20204;-58
2022/08/09 13:44:56;;;;;;;1.40;1.10;;;;;;;;;;5134765;27;20220;-58
2022/08/09 13:47:22;;;;;;;2.13;1.10;;;;;;;;;;5134712;27;20231;-59
2022/08/09 13:49:48;;;;;;;2.03;1.40;;;;;;;;;;5134872;27;20217;-59
2022/08/09 13:52:14;;;;;;;1.53;0.90;;;;;;;;;;5134807;27;20253;-59
2022/08/09 13:54:41;;;;;;;2.17;0.90;;;;;;;;;;5134614;27;20200;-59
2022/08/09 13:57:07;;;;;;;1.17;0.87;;;;;;;;;;5134481;27;20234;-59
2022/08/09 13:59:34;;;;;;;1.33;1.10;;;;;;;;;;5134570;27;20205;-59
2022/08/09 14:02:00;;;;;;;1.60;1.10;;;;;;;;;;5134631;27;20519;-59
2022/08/09 14:04:26;;;;;;;1.67;1.10;;;;;;;;;;5134423;27;20210;-59
2022/08/09 14:06:52;;;;;;;1.63;1.00;;;;;;;;;;5134390;27;20240;-59
2022/08/09 14:09:18;;;;;;;1.37;0.97;;;;;;;;;;5133557;27;20209;-60
2022/08/09 14:11:46;;;;;;;2.43;1.13;;;;;;;;;;5134470;27;20257;-59
2022/08/09 14:14:12;;;;;;;1.30;1.00;;;;;;;;;;5134174;27;20717;-59
2022/08/09 14:16:38;;;;;;;2.90;1.00;;;;;;;;;;5134132;27;20465;-60
2022/08/09 14:19:04;;;;;;;1.60;1.00;;;;;;;;;;5134228;27;20202;-60
2022/08/09 14:21:30;;;;;;;1.27;0.93;;;;;;;;;;5134084;27;20196;-59
2022/08/09 14:23:56;;;;;;;2.70;1.13;;;;;;;;;;5134053;27;20199;-59
2022/08/09 14:26:22;;;;;;;1.53;0.93;;;;;;;;;;5133868;27;20191;-59
2022/08/09 14:28:50;;;;;;;3.33;1.20;;;;;;;;;;5134105;27;20223;-60
2022/08/09 14:31:16;;;;;;;1.40;1.10;;;;;;;;;;5133913;27;20208;-59
2022/08/09 14:33:42;;;;;;;3.30;1.30;;;;;;;;;;5133922;27;20195;-60
2022/08/09 14:36:08;;;;;;;2.20;1.10;;;;;;;;;;5133708;27;20836;-60
2022/08/09 14:38:34;;;;;;;2.73;1.10;;;;;;;;;;5133627;27;20207;-59
2022/08/09 14:41:00;;;;;;;0.83;0.73;;;;;;;;;;5133898;27;20199;-60
2022/08/09 14:43:26;;;;;;;1.80;1.00;;;;;;;;;;5133589;27;20299;-60
2022/08/09 14:45:53;;;;;;;1.13;1.03;;;;;;;;;;5133626;27;20250;-59
2022/08/09 14:48:19;;;;;;;1.90;1.03;;;;;;;;;;5133521;27;20196;-59